F/V Cote D'ambre — FPEY — position and weather

sailwx.info

Track history (hours):
 
Tides and Currents Weather Stations Pressure Air Temp Water Temp Dewpoint Dewpoint Depression Visibility Wind Speed Wind Dir Waves Ship Positions

F/V Cote D'ambre

Last reported at 2014-Oct-18 01:33 UTC. Time now 2014-Oct-21 00:44 UTC.
Position N 47°44' W 003°22'.

Length 16 m; draft 4 m.

Type: Fishing. MMSI: 227128800.

Date/timePositionNaut miles runAvg speedWind from/ knotsBaromVisibWave heightAir tempDewpointWater temp
2014-Oct-18 01:33N 47°44' W 003°22'0 0.2
2014-Oct-18 00:32N 47°44' W 003°22'0 0.0
2014-Oct-17 23:32N 47°44' W 003°22'6 5.9
2014-Oct-17 22:33N 47°38' W 003°22'7 0.2
2014-Oct-16 04:08N 47°32' W 003°23'5 7.9
2014-Oct-16 03:33N 47°36' W 003°22'8 7.4
2014-Oct-16 02:31N 47°44' W 003°22'0 0.0
2014-Oct-16 01:31N 47°44' W 003°22'5 5.0
2014-Oct-16 00:33N 47°39' W 003°22'4 0.1
2014-Oct-13 22:33N 47°35' W 003°22'9 8.7
2014-Oct-13 21:33N 47°43' W 003°22'0 0.4
2014-Oct-13 20:33N 47°44' W 003°22'7 7.0
2014-Oct-13 19:33N 47°40' W 003°31'7 0.5
2014-Oct-13 05:12N 47°35' W 003°23'5 8.6
2014-Oct-13 04:34N 47°41' W 003°22'3 2.9
2014-Oct-13 03:33N 47°44' W 003°22'0 0.1
2014-Oct-13 02:33N 47°44' W 003°22'0 0.0
2014-Oct-13 01:33N 47°44' W 003°22'0 0.0
2014-Oct-13 00:33N 47°44' W 003°22'0 0.0
2014-Oct-12 23:33N 47°44' W 003°22'0 0.2
2014-Oct-12 22:33N 47°44' W 003°22'2 1.6
2014-Oct-12 21:33N 47°42' W 003°22'4 4.3
2014-Oct-12 20:33N 47°41' W 003°28'32 8.1
2014-Oct-12 16:33N 47°40' W 004°16'18 1.1
2014-Oct-11 23:33N 47°37' W 003°50'8 7.7
2014-Oct-11 22:28N 47°39' W 003°38'7 7.8
2014-Oct-11 21:33N 47°40' W 003°27'5 5.0
2014-Oct-11 20:32N 47°44' W 003°22'0 0.1
2014-Oct-11 19:31N 47°44' W 003°22'0 0.0
2014-Oct-11 18:34N 47°44' W 003°22'8 7.9
2014-Oct-11 17:33N 47°36' W 003°25'5 4.1
2014-Oct-11 16:23N 47°33' W 003°31'4 0.5
2014-Oct-11 07:11N 47°30' W 003°35'8 2.8
2014-Oct-11 04:12N 47°38' W 003°33'4 6.4
2014-Oct-11 03:33N 47°40' W 003°28'5 5.3
2014-Oct-11 02:33N 47°44' W 003°22'0 0.0
2014-Oct-11 01:33N 47°44' W 003°22'0 0.0
2014-Oct-11 00:33N 47°44' W 003°22'0 0.0
2014-Oct-10 23:33N 47°44' W 003°22'0 0.0
2014-Oct-10 22:33N 47°44' W 003°22'0 0.0
2014-Oct-10 21:33N 47°44' W 003°22'0 0.1
2014-Oct-10 20:33N 47°44' W 003°22'6 6.1
2014-Oct-10 19:33N 47°40' W 003°29'10 1.0
2014-Oct-10 09:32N 47°32' W 003°38'1 1.4
2014-Oct-10 08:32N 47°31' W 003°36'7 1.6
2014-Oct-10 04:32N 47°38' W 003°33'6 6.0
2014-Oct-10 03:33N 47°41' W 003°25'4 3.8
2014-Oct-10 02:32N 47°44' W 003°22'0 0.0
2014-Oct-10 01:32N 47°44' W 003°22'0 0.0
2014-Oct-10 00:33N 47°44' W 003°22'7 7.2
2014-Oct-09 23:33N 47°37' W 003°22'5 4.5
2014-Oct-09 22:32N 47°32' W 003°24'2 1.9
2014-Oct-09 21:25N 47°31' W 003°27'11 0.7
2014-Oct-09 06:33N 47°42' W 003°23'2 2.0
2014-Oct-09 05:31N 47°44' W 003°22'0 0.1
2014-Oct-09 04:33N 47°44' W 003°22'  
Track history (hours):
 
Tides and Currents Weather Stations Pressure Air Temp Water Temp Dewpoint Dewpoint Depression Visibility Wind Speed Wind Dir Waves Ship Positions

F/V Cote D'ambre

Last reported at 2014-Oct-18 01:33 UTC. Time now 2014-Oct-21 00:44 UTC.
Position N 47°44' W 003°22'.

Length 16 m; draft 4 m.

Type: Fishing. MMSI: 227128800.

Date/timePositionNaut miles runAvg speedWind from/ knotsBaromVisibWave heightAir tempDewpointWater temp
2014-Oct-18 01:33N 47°44' W 003°22'0 0.2
2014-Oct-18 00:32N 47°44' W 003°22'0 0.0
2014-Oct-17 23:32N 47°44' W 003°22'6 5.9
2014-Oct-17 22:33N 47°38' W 003°22'7 0.2
2014-Oct-16 04:08N 47°32' W 003°23'5 7.9
2014-Oct-16 03:33N 47°36' W 003°22'8 7.4
2014-Oct-16 02:31N 47°44' W 003°22'0 0.0
2014-Oct-16 01:31N 47°44' W 003°22'5 5.0
2014-Oct-16 00:33N 47°39' W 003°22'4 0.1
2014-Oct-13 22:33N 47°35' W 003°22'9 8.7
2014-Oct-13 21:33N 47°43' W 003°22'0 0.4
2014-Oct-13 20:33N 47°44' W 003°22'7 7.0
2014-Oct-13 19:33N 47°40' W 003°31'7 0.5
2014-Oct-13 05:12N 47°35' W 003°23'5 8.6
2014-Oct-13 04:34N 47°41' W 003°22'3 2.9
2014-Oct-13 03:33N 47°44' W 003°22'0 0.1
2014-Oct-13 02:33N 47°44' W 003°22'0 0.0
2014-Oct-13 01:33N 47°44' W 003°22'0 0.0
2014-Oct-13 00:33N 47°44' W 003°22'0 0.0
2014-Oct-12 23:33N 47°44' W 003°22'0 0.2
2014-Oct-12 22:33N 47°44' W 003°22'2 1.6
2014-Oct-12 21:33N 47°42' W 003°22'4 4.3
2014-Oct-12 20:33N 47°41' W 003°28'32 8.1
2014-Oct-12 16:33N 47°40' W 004°16'18 1.1
2014-Oct-11 23:33N 47°37' W 003°50'8 7.7
2014-Oct-11 22:28N 47°39' W 003°38'7 7.8
2014-Oct-11 21:33N 47°40' W 003°27'5 5.0
2014-Oct-11 20:32N 47°44' W 003°22'0 0.1
2014-Oct-11 19:31N 47°44' W 003°22'0 0.0
2014-Oct-11 18:34N 47°44' W 003°22'8 7.9
2014-Oct-11 17:33N 47°36' W 003°25'5 4.1
2014-Oct-11 16:23N 47°33' W 003°31'4 0.5
2014-Oct-11 07:11N 47°30' W 003°35'8 2.8
2014-Oct-11 04:12N 47°38' W 003°33'4 6.4
2014-Oct-11 03:33N 47°40' W 003°28'5 5.3
2014-Oct-11 02:33N 47°44' W 003°22'0 0.0
2014-Oct-11 01:33N 47°44' W 003°22'0 0.0
2014-Oct-11 00:33N 47°44' W 003°22'0 0.0
2014-Oct-10 23:33N 47°44' W 003°22'0 0.0
2014-Oct-10 22:33N 47°44' W 003°22'0 0.0
2014-Oct-10 21:33N 47°44' W 003°22'0 0.1
2014-Oct-10 20:33N 47°44' W 003°22'6 6.1
2014-Oct-10 19:33N 47°40' W 003°29'10 1.0
2014-Oct-10 09:32N 47°32' W 003°38'1 1.4
2014-Oct-10 08:32N 47°31' W 003°36'7 1.6
2014-Oct-10 04:32N 47°38' W 003°33'6 6.0
2014-Oct-10 03:33N 47°41' W 003°25'4 3.8
2014-Oct-10 02:32N 47°44' W 003°22'0 0.0
2014-Oct-10 01:32N 47°44' W 003°22'0 0.0
2014-Oct-10 00:33N 47°44' W 003°22'7 7.2
2014-Oct-09 23:33N 47°37' W 003°22'5 4.5
2014-Oct-09 22:32N 47°32' W 003°24'2 1.9
2014-Oct-09 21:25N 47°31' W 003°27'11 0.7
2014-Oct-09 06:33N 47°42' W 003°23'2 2.0
2014-Oct-09 05:31N 47°44' W 003°22'0 0.1
2014-Oct-09 04:33N 47°44' W 003°22'  

Dump ship's entire track history